createdAt,value
2019-02-26T00:00:26.877Z,10.30
2019-02-26T00:02:56.341Z,10.75
2019-02-26T00:05:26.051Z,10.95
2019-02-26T00:07:57.745Z,11.65
2019-02-26T00:10:26.823Z,12.13
2019-02-26T00:12:56.229Z,11.22
2019-02-26T00:15:24.662Z,10.48
2019-02-26T00:17:53.136Z,11.40
2019-02-26T00:20:21.585Z,13.20
2019-02-26T00:22:49.993Z,11.83
2019-02-26T00:25:20.373Z,11.73
2019-02-26T00:27:49.631Z,11.57
2019-02-26T00:30:19.108Z,11.22
2019-02-26T00:32:47.538Z,10.70
2019-02-26T00:35:18.235Z,8.45
2019-02-26T00:37:47.021Z,11.35
2019-02-26T00:40:17.977Z,10.68
2019-02-26T00:42:50.224Z,12.15
2019-02-26T00:45:16.700Z,11.75
2019-02-26T00:47:46.147Z,11.88
2019-02-26T00:50:16.684Z,11.40
2019-02-26T00:52:45.237Z,12.35
2019-02-26T00:55:13.634Z,11.78
2019-02-26T00:57:42.995Z,10.00
2019-02-26T01:00:16.373Z,9.63
2019-02-26T01:02:44.824Z,11.18
2019-02-26T01:05:15.687Z,10.53
2019-02-26T01:07:46.946Z,9.68
2019-02-26T01:10:16.457Z,10.45
2019-02-26T01:12:45.410Z,11.15
2019-02-26T01:15:19.025Z,11.03
2019-02-26T01:17:47.459Z,12.55
2019-02-26T01:20:20.068Z,11.43
2019-02-26T01:22:49.228Z,11.40
2019-02-26T01:25:18.580Z,11.28
2019-02-26T01:27:48.333Z,14.20
2019-02-26T01:30:21.124Z,11.68
2019-02-26T01:32:48.213Z,12.15
2019-02-26T01:35:16.722Z,11.78
2019-02-26T01:37:45.129Z,12.53
2019-02-26T01:40:16.396Z,12.93
2019-02-26T01:42:47.292Z,12.43
2019-02-26T01:45:14.574Z,12.80
2019-02-26T01:47:45.582Z,13.08
2019-02-26T01:50:15.989Z,12.33
2019-02-26T01:52:43.728Z,13.05
2019-02-26T01:55:12.491Z,12.35
2019-02-26T01:57:43.501Z,12.45
2019-02-26T02:00:19.046Z,11.78
2019-02-26T02:02:47.461Z,14.60
2019-02-26T02:05:15.962Z,13.60
2019-02-26T02:07:46.742Z,13.35
2019-02-26T02:10:16.162Z,14.93
2019-02-26T02:12:44.576Z,16.02
2019-02-26T02:15:18.857Z,17.52
2019-02-26T02:17:46.187Z,17.50
2019-02-26T02:20:19.405Z,21.80
2019-02-26T02:22:46.404Z,18.82
2019-02-26T02:25:14.942Z,16.80
2019-02-26T02:27:47.680Z,13.25
2019-02-26T02:30:22.350Z,14.40
2019-02-26T02:32:50.379Z,12.40
2019-02-26T02:35:18.955Z,14.20
2019-02-26T02:37:46.277Z,12.37
2019-02-26T02:40:14.736Z,12.43
2019-02-26T02:42:45.645Z,12.55
2019-02-26T02:45:17.200Z,11.28
2019-02-26T02:47:43.870Z,12.35
2019-02-26T02:50:15.182Z,13.22
2019-02-26T02:52:43.928Z,11.70
2019-02-26T02:55:13.868Z,12.30
2019-02-26T02:57:43.232Z,12.65
2019-02-26T03:00:15.983Z,13.53
2019-02-26T03:02:46.661Z,11.65
2019-02-26T03:05:14.558Z,12.80
2019-02-26T03:07:47.956Z,13.60
2019-02-26T03:10:15.150Z,12.05
2019-02-26T03:12:47.652Z,12.82
2019-02-26T03:15:16.282Z,12.15
2019-02-26T03:17:44.751Z,13.75
2019-02-26T03:20:14.617Z,13.75
2019-02-26T03:22:46.701Z,12.82
2019-02-26T03:25:17.773Z,11.68
2019-02-26T03:27:45.819Z,13.25
2019-02-26T03:30:32.095Z,11.75
2019-02-26T03:32:58.679Z,11.95
2019-02-26T03:35:23.483Z,12.65
2019-02-26T03:37:54.877Z,13.15
2019-02-26T03:40:26.362Z,13.20
2019-02-26T03:42:53.429Z,13.13
2019-02-26T03:45:24.829Z,11.45
2019-02-26T03:47:52.024Z,11.70
2019-02-26T03:50:20.434Z,12.43
2019-02-26T03:52:48.838Z,13.30
2019-02-26T03:55:18.884Z,12.80
2019-02-26T03:57:50.569Z,11.78
2019-02-26T04:00:19.851Z,12.95
2019-02-26T04:02:51.291Z,13.08
2019-02-26T04:05:18.801Z,12.15
2019-02-26T04:07:51.638Z,13.38
2019-02-26T04:10:17.496Z,12.13
2019-02-26T04:12:48.700Z,13.00
2019-02-26T04:15:16.979Z,12.75
2019-02-26T04:17:45.659Z,11.35
2019-02-26T04:20:15.429Z,13.88
2019-02-26T04:22:49.007Z,12.00
2019-02-26T04:25:36.284Z,12.73
2019-02-26T04:28:15.843Z,12.30
2019-02-26T04:30:56.332Z,12.20
2019-02-26T04:33:50.600Z,13.13
2019-02-26T04:36:22.419Z,13.13
2019-02-26T04:39:02.949Z,12.28
2019-02-26T04:41:34.433Z,13.30
2019-02-26T04:44:09.131Z,12.15
2019-02-26T04:46:40.608Z,12.20
2019-02-26T04:49:09.027Z,12.90
2019-02-26T04:51:41.572Z,11.57
2019-02-26T04:54:07.570Z,12.45
2019-02-26T04:56:39.067Z,12.25
2019-02-26T04:59:07.021Z,14.05
2019-02-26T05:01:36.264Z,13.05
2019-02-26T05:04:04.686Z,12.37
2019-02-26T05:06:33.163Z,12.80
2019-02-26T05:09:02.870Z,12.03
2019-02-26T05:11:35.761Z,12.82
2019-02-26T05:14:01.918Z,15.68
2019-02-26T05:16:32.655Z,11.55
2019-02-26T05:19:00.455Z,12.75
2019-02-26T05:21:30.528Z,13.28
2019-02-26T05:24:00.198Z,13.13
2019-02-26T05:26:30.241Z,12.78
2019-02-26T05:28:59.010Z,11.30
2019-02-26T05:31:29.632Z,14.43
2019-02-26T05:34:00.075Z,12.13
2019-02-26T05:36:28.419Z,13.20
2019-02-26T05:39:00.345Z,13.43
2019-02-26T05:41:27.924Z,13.40
2019-02-26T05:43:58.292Z,12.63
2019-02-26T05:46:27.512Z,11.40
2019-02-26T05:48:56.593Z,13.88
2019-02-26T05:51:27.443Z,12.37
2019-02-26T05:53:55.511Z,12.73
2019-02-26T05:56:24.021Z,13.55
2019-02-26T05:58:52.469Z,12.90
2019-02-26T06:01:22.554Z,13.78
2019-02-26T06:03:53.220Z,13.70
2019-02-26T06:06:21.678Z,12.47
2019-02-26T06:08:50.140Z,12.15
2019-02-26T06:11:19.539Z,12.13
2019-02-26T06:13:48.029Z,14.33
2019-02-26T06:16:16.468Z,13.38
2019-02-26T06:18:46.394Z,13.03
2019-02-26T06:21:16.545Z,12.55
2019-02-26T06:23:53.423Z,13.30
2019-02-26T06:26:22.012Z,14.03
2019-02-26T06:28:52.972Z,15.35
2019-02-26T06:31:24.642Z,14.53
2019-02-26T06:33:52.730Z,13.55
2019-02-26T06:36:23.351Z,13.65
2019-02-26T06:38:52.143Z,13.28
2019-02-26T06:41:21.733Z,13.83
2019-02-26T06:43:50.812Z,14.75
2019-02-26T06:46:20.401Z,14.13
2019-02-26T06:48:48.867Z,13.15
2019-02-26T06:51:18.986Z,13.08
2019-02-26T06:53:49.391Z,13.68
2019-02-26T06:56:17.916Z,14.18
2019-02-26T06:58:47.469Z,15.58
2019-02-26T07:01:16.671Z,13.43
2019-02-26T07:03:46.172Z,14.28
2019-02-26T07:06:18.425Z,13.15
2019-02-26T07:08:47.201Z,13.30
2019-02-26T07:11:15.708Z,13.48
2019-02-26T07:13:46.408Z,14.73
2019-02-26T07:16:14.244Z,15.38
2019-02-26T07:18:42.685Z,14.13
2019-02-26T07:21:11.109Z,14.33
2019-02-26T07:23:40.032Z,14.28
2019-02-26T07:26:08.613Z,13.50
2019-02-26T07:28:37.659Z,14.05
2019-02-26T07:31:07.943Z,12.47
2019-02-26T07:33:39.467Z,14.55
2019-02-26T07:36:07.552Z,15.23
2019-02-26T07:38:41.245Z,14.68
2019-02-26T07:41:06.878Z,14.28
2019-02-26T07:43:38.739Z,12.80
2019-02-26T07:46:05.774Z,16.17
2019-02-26T07:48:34.335Z,13.78
2019-02-26T07:51:02.743Z,15.23
2019-02-26T07:53:31.324Z,14.25
2019-02-26T07:56:01.785Z,15.18
2019-02-26T07:58:31.426Z,11.80
2019-02-26T08:01:00.580Z,13.75
2019-02-26T08:03:29.449Z,12.63
2019-02-26T08:05:59.510Z,13.50
2019-02-26T08:08:28.415Z,13.38
2019-02-26T08:10:56.822Z,13.00
2019-02-26T08:13:28.526Z,14.73
2019-02-26T08:15:57.657Z,13.80
2019-02-26T08:18:25.525Z,11.75
2019-02-26T08:20:56.885Z,12.58
2019-02-26T08:23:26.247Z,11.95
2019-02-26T08:25:55.488Z,12.20
2019-02-26T08:28:24.897Z,13.45
2019-02-26T08:30:55.261Z,11.97
2019-02-26T08:33:23.701Z,12.30
2019-02-26T08:35:55.489Z,11.60
2019-02-26T08:38:22.388Z,11.20
2019-02-26T08:40:50.923Z,11.53
2019-02-26T08:43:19.364Z,13.33
2019-02-26T08:45:47.924Z,12.80
2019-02-26T08:48:17.345Z,17.90
2019-02-26T08:50:46.875Z,16.00
2019-02-26T08:53:15.277Z,15.77
2019-02-26T08:55:44.082Z,15.10
2019-02-26T08:58:12.630Z,12.73
2019-02-26T09:00:41.141Z,20.50
2019-02-26T09:03:10.745Z,16.00
2019-02-26T09:05:39.763Z,10.50
2019-02-26T09:08:09.178Z,10.73
2019-02-26T09:10:39.511Z,9.20
2019-02-26T09:13:09.383Z,10.53
2019-02-26T09:15:40.838Z,9.80
2019-02-26T09:18:08.859Z,9.17
2019-02-26T09:20:37.279Z,11.33
2019-02-26T09:23:05.757Z,10.80
2019-02-26T09:25:34.186Z,16.63
2019-02-26T09:28:02.639Z,13.93
2019-02-26T09:30:33.412Z,10.17
2019-02-26T09:33:03.168Z,10.83
2019-02-26T09:35:33.088Z,10.30
2019-02-26T09:38:01.688Z,10.30
2019-02-26T09:40:34.101Z,9.63
2019-02-26T09:43:00.290Z,9.40
2019-02-26T09:45:30.119Z,9.77
2019-02-26T09:48:00.982Z,9.60
2019-02-26T09:50:28.865Z,9.20
2019-02-26T09:52:59.098Z,9.20
2019-02-26T09:55:27.431Z,8.23
2019-02-26T09:57:55.843Z,7.20
2019-02-26T10:00:27.204Z,8.23
2019-02-26T10:02:54.537Z,8.50
2019-02-26T10:05:23.218Z,8.10
2019-02-26T10:07:54.370Z,9.10
2019-02-26T10:10:22.984Z,9.43
2019-02-26T10:12:53.855Z,8.83
2019-02-26T10:15:21.557Z,7.67
2019-02-26T10:17:50.438Z,8.00
2019-02-26T10:20:23.292Z,8.63
2019-02-26T10:22:53.149Z,7.97
2019-02-26T10:25:23.352Z,7.77
2019-02-26T10:27:51.275Z,8.87
2019-02-26T10:30:20.820Z,8.40
2019-02-26T10:32:49.410Z,8.37
2019-02-26T10:35:32.613Z,7.87
2019-02-26T10:38:03.617Z,9.53
2019-02-26T10:40:35.569Z,9.10
2019-02-26T10:43:00.978Z,8.83
2019-02-26T10:45:30.485Z,7.83
2019-02-26T10:48:01.427Z,7.20
2019-02-26T10:50:31.628Z,8.63
2019-02-26T10:53:06.943Z,8.30
2019-02-26T10:55:35.327Z,7.60
2019-02-26T10:58:06.344Z,8.07
2019-02-26T11:00:34.103Z,17.20
2019-02-26T11:03:00.668Z,19.43
2019-02-26T11:05:29.421Z,14.60
2019-02-26T11:07:59.785Z,15.57
2019-02-26T11:10:28.050Z,27.10
2019-02-26T11:12:59.302Z,27.37
2019-02-26T11:15:29.786Z,30.17
2019-02-26T11:17:57.150Z,55.13
2019-02-26T11:20:28.365Z,41.93
2019-02-26T11:22:55.749Z,27.77
2019-02-26T11:25:26.512Z,52.67
2019-02-26T11:27:54.371Z,20.30
2019-02-26T11:30:26.076Z,6.80
2019-02-26T11:32:58.726Z,7.33
2019-02-26T11:35:25.211Z,33.23
2019-02-26T11:37:55.365Z,999.90
2019-02-26T11:40:27.651Z,210.13
2019-02-26T11:42:55.611Z,999.90
2019-02-26T11:45:24.777Z,937.87
2019-02-26T11:47:55.161Z,176.83
2019-02-26T11:50:27.930Z,70.47
2019-02-26T11:52:55.616Z,812.90
2019-02-26T11:55:26.155Z,145.37
2019-02-26T11:57:54.249Z,514.87
2019-02-26T12:00:47.659Z,999.90
2019-02-26T12:03:15.357Z,539.77
2019-02-26T12:05:43.777Z,999.90
2019-02-26T12:08:31.554Z,999.90
2019-02-26T12:11:03.509Z,999.90
2019-02-26T12:13:30.161Z,999.90
2019-02-26T12:15:58.625Z,999.90
2019-02-26T12:18:27.381Z,999.90
2019-02-26T12:20:55.813Z,884.30
2019-02-26T12:23:24.297Z,989.00
2019-02-26T12:25:55.351Z,999.90
2019-02-26T12:28:25.177Z,999.90
2019-02-26T12:30:53.167Z,999.90
2019-02-26T12:33:21.593Z,999.90
2019-02-26T12:35:50.048Z,999.90
2019-02-26T12:38:21.446Z,999.90
2019-02-26T12:40:50.769Z,999.90
2019-02-26T12:43:19.354Z,999.90
2019-02-26T12:45:48.109Z,794.97
2019-02-26T12:48:19.727Z,927.90
2019-02-26T12:50:47.086Z,919.43
2019-02-26T12:53:17.976Z,917.07
2019-02-26T12:55:45.657Z,957.73
2019-02-26T12:58:17.050Z,999.90
2019-02-26T13:00:44.907Z,999.90
2019-02-26T13:03:15.980Z,771.50
2019-02-26T13:05:45.599Z,999.90
2019-02-26T13:08:17.208Z,999.90
2019-02-26T13:10:49.558Z,996.83
2019-02-26T13:13:14.051Z,999.90
2019-02-26T13:15:42.477Z,999.90
2019-02-26T13:18:10.904Z,819.13
2019-02-26T13:20:39.332Z,999.90
2019-02-26T13:23:16.982Z,999.90
2019-02-26T13:25:37.913Z,999.90
2019-02-26T13:28:06.380Z,999.90
2019-02-26T13:30:34.839Z,839.17
2019-02-26T13:33:05.161Z,753.03
2019-02-26T13:35:33.534Z,999.90
2019-02-26T13:38:03.389Z,999.90
2019-02-26T13:40:38.284Z,596.73
2019-02-26T13:45:30.657Z,762.30
2019-02-26T13:48:01.304Z,670.23
2019-02-26T13:50:30.705Z,999.90
2019-02-26T13:52:59.130Z,586.53
2019-02-26T13:55:27.648Z,857.47
2019-02-26T13:57:56.075Z,729.33
2019-02-26T14:00:26.604Z,700.83
2019-02-26T14:02:54.858Z,780.90
2019-02-26T14:05:23.378Z,813.67
2019-02-26T14:07:53.197Z,852.27
2019-02-26T14:10:22.709Z,786.70
2019-02-26T14:12:51.425Z,821.23
2019-02-26T14:15:30.933Z,889.77
2019-02-26T14:17:59.354Z,748.63
2019-02-26T14:20:27.810Z,892.00
2019-02-26T14:22:56.229Z,838.93
2019-02-26T14:25:24.677Z,785.90
2019-02-26T14:27:53.099Z,999.90
2019-02-26T14:30:22.581Z,427.97
2019-02-26T14:32:51.084Z,652.87
2019-02-26T14:35:19.673Z,731.80
2019-02-26T14:37:48.170Z,852.67
2019-02-26T14:40:20.437Z,809.77
2019-02-26T14:42:48.851Z,825.37
2019-02-26T14:45:25.091Z,832.87
2019-02-26T14:47:53.565Z,800.90
2019-02-26T14:50:23.153Z,165.90
2019-02-26T14:52:51.717Z,172.27
2019-02-26T14:55:20.578Z,150.80
2019-02-26T14:57:49.536Z,192.53
2019-02-26T15:00:45.819Z,162.73
2019-02-26T15:03:14.253Z,270.43
2019-02-26T15:05:42.799Z,252.53
2019-02-26T15:08:11.230Z,306.13
2019-02-26T15:10:39.937Z,359.33
2019-02-26T15:13:08.386Z,645.77
2019-02-26T15:15:36.850Z,769.13
2019-02-26T15:18:05.401Z,584.87
2019-02-26T15:20:33.916Z,629.33
2019-02-26T15:23:02.508Z,582.30
2019-02-26T15:25:31.906Z,686.40
2019-02-26T15:28:04.924Z,698.97
2019-02-26T15:30:30.583Z,730.13
2019-02-26T15:32:59.030Z,804.60
2019-02-26T15:35:27.719Z,799.90
2019-02-26T15:37:56.179Z,806.97
2019-02-26T15:40:24.970Z,861.73
2019-02-26T15:42:56.198Z,873.97
2019-02-26T15:45:29.019Z,999.90
2019-02-26T15:47:57.943Z,999.90
2019-02-26T15:50:26.449Z,999.90
2019-02-26T15:52:54.897Z,999.90
2019-02-26T15:55:28.887Z,999.90
2019-02-26T15:57:57.731Z,363.43
2019-02-26T16:00:27.766Z,701.10
2019-02-26T16:02:59.064Z,741.07
2019-02-26T16:05:32.755Z,999.90
2019-02-26T16:08:01.271Z,270.50
2019-02-26T16:10:29.777Z,258.63
2019-02-26T16:13:04.551Z,973.73
2019-02-26T16:15:34.774Z,723.87
2019-02-26T16:18:03.380Z,520.07
2019-02-26T16:20:32.144Z,711.13
2019-02-26T16:23:00.581Z,962.47
2019-02-26T16:25:29.389Z,748.17
2019-02-26T16:27:57.965Z,59.67
2019-02-26T16:30:29.911Z,999.90
2019-02-26T16:32:58.493Z,837.00
2019-02-26T16:35:27.450Z,161.37
2019-02-26T16:37:55.889Z,134.87
2019-02-26T16:40:24.404Z,47.77
2019-02-26T16:42:53.082Z,65.60
2019-02-26T16:45:24.476Z,118.73
2019-02-26T16:47:52.933Z,122.37
2019-02-26T16:50:23.533Z,73.10
2019-02-26T16:52:51.949Z,109.43
2019-02-26T16:55:21.426Z,108.70
2019-02-26T16:57:49.926Z,128.53
2019-02-26T17:00:27.625Z,58.10
2019-02-26T17:02:59.869Z,34.13
2019-02-26T17:05:26.655Z,30.83
2019-02-26T17:07:55.813Z,34.10
2019-02-26T17:10:29.134Z,94.73
2019-02-26T17:13:01.807Z,7.43
2019-02-26T17:15:30.682Z,22.20
2019-02-26T17:17:59.166Z,41.83
2019-02-26T17:20:27.661Z,36.30
2019-02-26T17:22:57.369Z,31.33
2019-02-26T17:25:28.624Z,24.80
2019-02-26T17:27:56.093Z,35.50
2019-02-26T17:30:24.794Z,28.10
2019-02-26T17:32:53.473Z,38.23
2019-02-26T17:35:22.277Z,28.30
2019-02-26T17:37:51.231Z,19.03
2019-02-26T17:40:23.978Z,13.40
2019-02-26T17:42:54.278Z,8.77
2019-02-26T17:45:34.878Z,8.40
2019-02-26T17:48:04.218Z,8.73
2019-02-26T17:50:35.277Z,8.40
2019-02-26T17:53:03.886Z,7.87
2019-02-26T17:55:32.620Z,8.57
2019-02-26T17:58:01.130Z,7.97
2019-02-26T18:00:31.202Z,9.30
2019-02-26T18:02:59.676Z,9.90
2019-02-26T18:05:28.069Z,7.03
2019-02-26T18:07:56.649Z,7.60
2019-02-26T18:10:27.957Z,7.43
2019-02-26T18:12:56.813Z,8.07
2019-02-26T18:15:25.319Z,8.50
2019-02-26T18:17:54.097Z,7.83
2019-02-26T18:20:27.719Z,8.30
2019-02-26T18:22:54.049Z,8.30
2019-02-26T18:25:23.420Z,8.70
2019-02-26T18:27:52.064Z,8.37
2019-02-26T18:30:27.779Z,7.90
2019-02-26T18:32:58.814Z,7.30
2019-02-26T18:35:26.407Z,7.67
2019-02-26T18:37:54.921Z,7.00
2019-02-26T18:40:27.649Z,7.60
2019-02-26T18:42:53.975Z,9.20
2019-02-26T18:45:27.875Z,8.10
2019-02-26T18:47:55.413Z,7.50
2019-02-26T18:50:25.803Z,7.10
2019-02-26T18:52:54.223Z,8.13
2019-02-26T18:55:22.803Z,7.67
2019-02-26T18:57:51.343Z,9.00
2019-02-26T19:00:25.656Z,8.63
2019-02-26T19:02:52.602Z,10.32
2019-02-26T19:05:21.588Z,10.95
2019-02-26T19:07:50.460Z,12.55
2019-02-26T19:10:20.910Z,13.37
2019-02-26T19:12:49.723Z,11.50
2019-02-26T19:15:32.393Z,9.03
2019-02-26T19:18:02.737Z,7.78
2019-02-26T19:20:36.204Z,8.25
2019-02-26T19:23:04.741Z,7.42
2019-02-26T19:25:33.162Z,7.78
2019-02-26T19:28:01.649Z,8.15
2019-02-26T19:30:30.057Z,8.33
2019-02-26T19:32:58.532Z,11.80
2019-02-26T19:35:27.030Z,13.83
2019-02-26T19:37:58.145Z,8.98
2019-02-26T19:40:38.720Z,7.65
2019-02-26T19:43:05.431Z,6.95
2019-02-26T19:45:33.836Z,7.83
2019-02-26T19:48:02.341Z,7.00
2019-02-26T19:50:30.866Z,8.30
2019-02-26T19:53:02.211Z,8.68
2019-02-26T19:55:32.252Z,9.45
2019-02-26T19:58:03.055Z,9.03
2019-02-26T20:00:30.881Z,8.97
2019-02-26T20:02:59.442Z,8.50
2019-02-26T20:05:27.850Z,12.40
2019-02-26T20:07:56.330Z,12.55
2019-02-26T20:10:24.745Z,9.85
2019-02-26T20:12:54.052Z,8.90
2019-02-26T20:15:22.707Z,8.95
2019-02-26T20:17:51.191Z,9.60
2019-02-26T20:20:20.938Z,8.70
2019-02-26T20:22:49.414Z,8.53
2019-02-26T20:25:21.520Z,8.43
2019-02-26T20:27:49.991Z,9.28
2019-02-26T20:30:23.067Z,8.43
2019-02-26T20:32:51.694Z,9.60
2019-02-26T20:35:20.119Z,9.35
2019-02-26T20:37:48.630Z,8.60
2019-02-26T20:40:24.568Z,10.40
2019-02-26T20:42:53.116Z,8.58
2019-02-26T20:45:22.781Z,8.53
2019-02-26T20:47:51.434Z,9.20
2019-02-26T20:50:21.428Z,9.48
2019-02-26T20:52:50.332Z,9.25
2019-02-26T20:55:22.843Z,9.93
2019-02-26T20:57:51.388Z,8.90
2019-02-26T21:00:24.877Z,10.95
2019-02-26T21:02:50.713Z,9.45
2019-02-26T21:05:19.181Z,11.57
2019-02-26T21:07:49.453Z,10.75
2019-02-26T21:10:21.551Z,11.68
2019-02-26T21:12:49.969Z,10.20
2019-02-26T21:15:21.507Z,9.53
2019-02-26T21:17:49.941Z,8.90
2019-02-26T21:20:38.781Z,11.22
2019-02-26T21:23:08.654Z,9.40
2019-02-26T21:25:37.070Z,10.20
2019-02-26T21:28:05.533Z,8.00
2019-02-26T21:30:33.991Z,7.60
2019-02-26T21:33:02.399Z,9.53
2019-02-26T21:35:31.082Z,8.90
2019-02-26T21:37:59.485Z,9.03
2019-02-26T21:40:27.917Z,9.30
2019-02-26T21:42:56.316Z,8.63
2019-02-26T21:45:24.740Z,10.75
2019-02-26T21:47:53.245Z,9.75
2019-02-26T21:50:22.755Z,10.35
2019-02-26T21:52:59.505Z,11.03
2019-02-26T21:55:21.719Z,13.85
2019-02-26T21:57:54.528Z,12.25
2019-02-26T22:00:21.773Z,12.23
2019-02-26T22:02:52.422Z,13.15
2019-02-26T22:05:20.389Z,11.53
2019-02-26T22:07:51.996Z,10.60
2019-02-26T22:10:21.895Z,11.85
2019-02-26T22:12:50.904Z,12.95
2019-02-26T22:15:19.635Z,11.40
2019-02-26T22:17:48.054Z,10.53
2019-02-26T22:20:32.985Z,11.10
2019-02-26T22:22:51.314Z,12.18
2019-02-26T22:25:19.818Z,12.82
2019-02-26T22:27:48.313Z,12.63
2019-02-26T22:30:21.388Z,13.48
2019-02-26T22:32:48.255Z,12.53
2019-02-26T22:35:17.247Z,13.18
2019-02-26T22:37:45.811Z,13.20
2019-02-26T22:40:14.973Z,13.25
2019-02-26T22:42:43.419Z,13.40
2019-02-26T22:45:14.426Z,12.98
2019-02-26T22:47:44.375Z,12.90
2019-02-26T22:50:16.131Z,12.75
2019-02-26T22:52:45.224Z,14.50
2019-02-26T22:55:16.591Z,13.25
2019-02-26T22:57:45.355Z,14.10
2019-02-26T23:00:54.975Z,15.10
2019-02-26T23:03:23.787Z,15.15
2019-02-26T23:05:52.526Z,13.38
2019-02-26T23:08:20.947Z,12.73
2019-02-26T23:10:51.204Z,12.60
2019-02-26T23:13:25.365Z,12.93
2019-02-26T23:15:53.800Z,12.23
2019-02-26T23:18:22.205Z,14.87
2019-02-26T23:20:50.824Z,13.43
2019-02-26T23:23:21.640Z,12.33
2019-02-26T23:25:49.699Z,14.50
2019-02-26T23:28:21.644Z,13.50
2019-02-26T23:30:48.623Z,12.55
2019-02-26T23:33:17.098Z,12.73
2019-02-26T23:35:45.643Z,12.65
2019-02-26T23:38:14.038Z,12.50
2019-02-26T23:40:42.508Z,12.75
2019-02-26T23:43:11.990Z,12.43
2019-02-26T23:45:40.957Z,11.65
2019-02-26T23:48:09.357Z,12.07
2019-02-26T23:50:37.886Z,13.50
2019-02-26T23:53:06.353Z,11.50
2019-02-26T23:55:34.808Z,13.03
2019-02-26T23:58:03.228Z,12.23
